Time;durP1;ratioP1;P1;durP2;ratioP2;P2;SDS_P1;SDS_P2;PMS_P1;PMS_P2;Temp;Humidity;BMP_temperature;BMP_pressure;BME280_temperature;BME280_humidity;BME280_pressure;Samples;Min_cycle;Max_cycle;Signal;HPM_P1;HPM_P2
2022/09/18 00:02:10;;;;;;;;;;;;;;;26.08;nan;100921.72;5054666;28;1008;-32
2022/09/18 00:04:36;;;;;;;;;;;;;;;26.09;nan;100928.72;5054365;28;1284;-32
2022/09/18 00:07:03;;;;;;;;;;;;;;;26.06;nan;100921.81;5054433;28;1066;-35
2022/09/18 00:09:30;;;;;;;;;;;;;;;26.08;nan;100913.69;5054570;28;1320;-31
2022/09/18 00:11:58;;;;;;;;;;;;;;;26.08;nan;100911.03;5054452;28;1022;-30
2022/09/18 00:14:25;;;;;;;;;;;;;;;26.08;nan;100916.38;5053635;28;1981;-34
2022/09/18 00:16:52;;;;;;;;;;;;;;;26.08;nan;100911.03;5053166;28;1355;-34
2022/09/18 00:19:19;;;;;;;;;;;;;;;26.07;nan;100909.31;5053988;28;910;-35
2022/09/18 00:21:47;;;;;;;;;;;;;;;26.06;nan;100907.63;5054016;28;1276;-35
2022/09/18 00:24:16;;;;;;;;;;;;;;;26.06;nan;100907.63;5054238;28;909;-34
2022/09/18 00:26:43;;;;;;;;;;;;;;;26.05;nan;100903.28;5053977;28;1192;-33
2022/09/18 00:29:10;;;;;;;;;;;;;;;26.07;nan;100904.00;5053935;28;753;-34
2022/09/18 00:31:37;;;;;;;;;;;;;;;26.06;nan;100902.28;5054012;28;1213;-33
2022/09/18 00:34:07;;;;;;;;;;;;;;;26.05;nan;100892.59;5054011;28;972;-34
2022/09/18 00:36:34;;;;;;;;;;;;;;;26.05;nan;100900.63;5053544;28;1910;-34
2022/09/18 00:39:04;;;;;;;;;;;;;;;26.05;nan;100896.09;5053859;28;762;-35
2022/09/18 00:41:32;;;;;;;;;;;;;;;26.05;nan;100898.75;5053783;28;1203;-35
2022/09/18 00:44:18;;;;;;;;;;;;;;;26.05;nan;100900.63;5053931;28;898;-35
2022/09/18 00:46:44;;;;;;;;;;;;;;;26.04;nan;100894.44;5053622;28;1387;-31
2022/09/18 00:49:14;;;;;;;;;;;;;;;26.04;nan;100888.22;5053602;28;1729;-34
2022/09/18 00:51:41;;;;;;;;;;;;;;;26.03;nan;100886.53;5053528;28;1189;-31
2022/09/18 00:54:18;;;;;;;;;;;;;;;26.03;nan;100892.72;5053166;28;726;-32
2022/09/18 00:56:46;;;;;;;;;;;;;;;26.04;nan;100893.56;5053177;28;1909;-34
2022/09/18 00:59:14;;;;;;;;;;;;;;;26.03;nan;100875.84;5053612;28;942;-34
2022/09/18 01:01:41;;;;;;;;;;;;;;;26.04;nan;100877.56;5053274;28;1166;-31
2022/09/18 01:04:11;;;;;;;;;;;;;;;26.03;nan;100881.19;5053316;28;753;-34
2022/09/18 01:06:50;;;;;;;;;;;;;;;26.02;nan;100875.00;5053002;28;1406;-31
2022/09/18 01:09:20;;;;;;;;;;;;;;;26.02;nan;100885.69;5053510;28;799;-32
2022/09/18 01:12:02;;;;;;;;;;;;;;;26.02;nan;100871.50;5053159;28;1122;-34
2022/09/18 01:14:32;;;;;;;;;;;;;;;26.02;nan;100869.66;5053540;28;1306;-35
2022/09/18 01:17:08;;;;;;;;;;;;;;;26.02;nan;100879.53;5053311;28;1013;-33
2022/09/18 01:19:46;;;;;;;;;;;;;;;26.01;nan;100877.81;5053409;28;1224;-35
2022/09/18 01:22:32;;;;;;;;;;;;;;;26.01;nan;100869.81;5053572;28;1017;-32
2022/09/18 01:25:02;;;;;;;;;;;;;;;25.99;nan;100867.25;5053231;28;1225;-35
2022/09/18 01:27:41;;;;;;;;;;;;;;;25.99;nan;100869.94;5053307;28;1037;-34
2022/09/18 01:30:09;;;;;;;;;;;;;;;25.99;nan;100866.44;5053081;28;1319;-34
2022/09/18 01:32:53;;;;;;;;;;;;;;;25.98;nan;100868.25;5053154;28;1025;-33
2022/09/18 01:35:20;;;;;;;;;;;;;;;25.98;nan;100873.59;5053169;28;1906;-33
2022/09/18 01:38:13;;;;;;;;;;;;;;;25.98;nan;100878.94;5053495;28;1047;-33
2022/09/18 01:40:43;;;;;;;;;;;;;;;25.98;nan;100878.94;5053004;28;1544;-34
2022/09/18 01:43:13;;;;;;;;;;;;;;;25.98;nan;100875.41;5053068;28;1132;-33
2022/09/18 01:45:42;;;;;;;;;;;;;;;25.97;nan;100882.56;5053126;28;1392;-32
2022/09/18 01:48:11;;;;;;;;;;;;;;;25.97;nan;100879.03;5052860;28;1644;-35
2022/09/18 01:50:41;;;;;;;;;;;;;;;25.97;nan;100876.38;5053046;28;1303;-34
2022/09/18 01:53:11;;;;;;;;;;;;;;;25.96;nan;100869.38;5052982;28;1519;-35
2022/09/18 01:55:39;;;;;;;;;;;;;;;25.96;nan;100869.38;5053074;28;1989;-35
2022/09/18 01:58:07;;;;;;;;;;;;;;;25.95;nan;100879.19;5053004;28;1035;-35
2022/09/18 02:00:36;;;;;;;;;;;;;;;25.96;nan;100874.72;5052819;28;1275;-35
2022/09/18 02:03:12;;;;;;;;;;;;;;;25.96;nan;100872.03;5052954;28;1028;-31
2022/09/18 02:05:42;;;;;;;;;;;;;;;25.95;nan;100860.50;5052667;28;1350;-33
2022/09/18 02:08:25;;;;;;;;;;;;;;;25.95;nan;100859.66;5052928;28;1048;-34
2022/09/18 02:10:55;;;;;;;;;;;;;;;25.95;nan;100857.84;5053001;28;1358;-29
2022/09/18 02:13:25;;;;;;;;;;;;;;;25.95;nan;100857.00;5052076;28;930;-35
2022/09/18 02:15:56;;;;;;;;;;;;;;;25.95;nan;100862.31;5052571;28;1906;-36
2022/09/18 02:18:31;;;;;;;;;;;;;;;25.94;nan;100852.63;5052891;28;1156;-34
2022/09/18 02:20:57;;;;;;;;;;;;;;;25.93;nan;100867.78;5084686;28;1220;-32
2022/09/18 02:23:24;;;;;;;;;;;;;;;25.94;nan;100865.97;5052324;28;1397;-32
2022/09/18 02:25:53;;;;;;;;;;;;;;;25.93;nan;100865.13;5052507;28;1294;-33
2022/09/18 02:28:21;;;;;;;;;;;;;;;25.94;nan;100857.97;5052861;28;1050;-35
2022/09/18 02:30:48;;;;;;;;;;;;;;;25.91;nan;100861.75;5052559;28;1285;-35
2022/09/18 02:33:25;;;;;;;;;;;;;;;25.92;nan;100857.25;5052929;28;1101;-35
2022/09/18 02:35:59;;;;;;;;;;;;;;;25.92;nan;100857.25;5067906;28;1975;-30
2022/09/18 02:38:39;;;;;;;;;;;;;;;25.92;nan;100867.94;5084579;28;1159;-33
2022/09/18 02:41:32;;;;;;;;;;;;;;;25.91;nan;100863.56;5053409;28;1276;-34
2022/09/18 02:44:06;;;;;;;;;;;;;;;25.90;nan;100848.53;5056633;28;1647;-33
2022/09/18 02:46:46;;;;;;;;;;;;;;;25.91;nan;100850.22;5056140;28;1292;-34
2022/09/18 02:49:30;;;;;;;;;;;;;;;25.90;nan;100851.22;5055894;28;1570;-31
2022/09/18 02:52:02;;;;;;;;;;;;;;;25.90;nan;100860.03;5055879;28;1099;-33
2022/09/18 02:54:28;;;;;;;;;;;;;;;25.91;nan;100863.56;5054965;28;1355;-34
2022/09/18 02:56:58;;;;;;;;;;;;;;;25.90;nan;100859.22;5055926;28;1984;-35
2022/09/18 02:59:25;;;;;;;;;;;;;;;25.89;nan;100858.38;5055645;28;1168;-30
2022/09/18 03:01:52;;;;;;;;;;;;;;;25.89;nan;100846.84;5055879;28;1036;-35
2022/09/18 03:04:21;;;;;;;;;;;;;;;25.88;nan;100855.81;5055990;28;1632;-33
2022/09/18 03:06:48;;;;;;;;;;;;;;;25.89;nan;100862.84;5055327;28;1601;-33
2022/09/18 03:09:15;;;;;;;;;;;;;;;25.87;nan;100849.63;5055071;28;717;-33
2022/09/18 03:11:42;;;;;;;;;;;;;;;25.87;nan;100854.13;5055620;28;1217;-32
2022/09/18 03:14:09;;;;;;;;;;;;;;;25.87;nan;100857.63;5055569;28;730;-30
2022/09/18 03:16:35;;;;;;;;;;;;;;;25.86;nan;100855.97;5055978;28;1910;-35
2022/09/18 03:19:02;;;;;;;;;;;;;;;25.85;nan;100864.06;5055790;28;894;-35
2022/09/18 03:21:29;;;;;;;;;;;;;;;25.86;nan;100869.31;5055503;28;1225;-30
2022/09/18 03:23:56;;;;;;;;;;;;;;;25.86;nan;100868.44;5055252;28;837;-31
2022/09/18 03:26:22;;;;;;;;;;;;;;;25.86;nan;100863.13;5055246;28;1206;-34
2022/09/18 03:28:49;;;;;;;;;;;;;;;25.86;nan;100865.78;5055348;28;706;-34
2022/09/18 03:31:16;;;;;;;;;;;;;;;25.85;nan;100862.25;5055448;28;1288;-32
2022/09/18 03:33:42;;;;;;;;;;;;;;;25.85;nan;100861.41;5055420;28;878;-31
2022/09/18 03:36:09;;;;;;;;;;;;;;;25.85;nan;100867.59;5054966;28;1910;-31
2022/09/18 03:38:39;;;;;;;;;;;;;;;25.84;nan;100870.41;5054343;28;1474;-29
2022/09/18 03:41:06;;;;;;;;;;;;;;;25.84;nan;100875.75;5055052;28;1367;-34
2022/09/18 03:43:33;;;;;;;;;;;;;;;25.84;nan;100881.09;5055411;28;1059;-31
2022/09/18 03:46:00;;;;;;;;;;;;;;;25.83;nan;100874.91;5054788;28;1298;-35
2022/09/18 03:48:27;;;;;;;;;;;;;;;25.83;nan;100882.06;5055001;28;1261;-34
2022/09/18 03:50:54;;;;;;;;;;;;;;;25.83;nan;100890.06;5055106;28;1379;-31
2022/09/18 03:53:20;;;;;;;;;;;;;;;25.81;nan;100881.31;5053805;28;1143;-33
2022/09/18 03:55:50;;;;;;;;;;;;;;;25.82;nan;100883.03;5086592;28;1991;-34
2022/09/18 03:58:17;;;;;;;;;;;;;;;25.80;nan;100890.31;5055148;28;941;-31
2022/09/18 04:00:44;;;;;;;;;;;;;;;25.80;nan;100888.50;5054742;28;1201;-33
2022/09/18 04:03:11;;;;;;;;;;;;;;;25.80;nan;100891.16;5054937;28;1201;-32
2022/09/18 04:05:38;;;;;;;;;;;;;;;25.80;nan;100891.16;5054643;28;1237;-32
2022/09/18 04:08:04;;;;;;;;;;;;;;;25.80;nan;100887.66;5054573;28;960;-31
2022/09/18 04:10:32;;;;;;;;;;;;;;;25.79;nan;100896.63;5069538;28;1216;-31
2022/09/18 04:12:59;;;;;;;;;;;;;;;25.78;nan;100897.59;5054720;28;884;-35
2022/09/18 04:15:25;;;;;;;;;;;;;;;25.78;nan;100897.59;5069616;28;1979;-33
2022/09/18 04:17:52;;;;;;;;;;;;;;;25.78;nan;100894.91;5054269;28;1084;-28
2022/09/18 04:20:18;;;;;;;;;;;;;;;25.77;nan;100896.75;5054360;28;1249;-33
2022/09/18 04:22:45;;;;;;;;;;;;;;;25.78;nan;100902.91;5054664;28;1027;-35
2022/09/18 04:25:12;;;;;;;;;;;;;;;25.78;nan;100908.25;5054677;28;1292;-33
2022/09/18 04:27:39;;;;;;;;;;;;;;;25.76;nan;100905.72;5054425;28;1605;-33
2022/09/18 04:30:06;;;;;;;;;;;;;;;25.76;nan;100910.22;5053502;28;1209;-34
2022/09/18 04:32:33;;;;;;;;;;;;;;;25.75;nan;100908.50;5054440;28;1135;-35
2022/09/18 04:34:59;;;;;;;;;;;;;;;25.74;nan;100909.50;5054314;28;1273;-34
2022/09/18 04:37:26;;;;;;;;;;;;;;;25.74;nan;100901.50;5054288;28;1919;-34
2022/09/18 04:39:53;;;;;;;;;;;;;;;25.74;nan;100898.84;5053876;28;1220;-32
2022/09/18 04:42:19;;;;;;;;;;;;;;;25.73;nan;100905.13;5054098;28;1128;-30
2022/09/18 04:44:46;;;;;;;;;;;;;;;25.73;nan;100899.81;5053999;28;1300;-32
2022/09/18 04:47:13;;;;;;;;;;;;;;;25.73;nan;100902.47;5054095;28;1212;-35
2022/09/18 04:49:39;;;;;;;;;;;;;;;25.72;nan;100892.75;5053803;28;1612;-33
2022/09/18 04:52:06;;;;;;;;;;;;;;;25.72;nan;100895.44;5053793;28;1103;-33
2022/09/18 04:54:33;;;;;;;;;;;;;;;25.71;nan;100891.94;5053837;28;1325;-29
2022/09/18 04:57:00;;;;;;;;;;;;;;;25.71;nan;100902.63;5053882;28;1910;-31
2022/09/18 04:59:26;;;;;;;;;;;;;;;25.70;nan;100900.91;5053436;28;1213;-33
2022/09/18 05:01:53;;;;;;;;;;;;;;;25.70;nan;100900.91;5053462;28;1052;-32
2022/09/18 05:04:20;;;;;;;;;;;;;;;25.69;nan;100904.53;5053548;28;922;-35
2022/09/18 05:06:47;;;;;;;;;;;;;;;25.69;nan;100907.22;5053394;28;1308;-31
2022/09/18 05:09:14;;;;;;;;;;;;;;;25.70;nan;100916.06;5053525;28;805;-31
2022/09/18 05:11:40;;;;;;;;;;;;;;;25.69;nan;100919.69;5053231;28;1212;-32
2022/09/18 05:14:07;;;;;;;;;;;;;;;25.68;nan;100907.34;5053120;28;1212;-30
2022/09/18 05:16:34;;;;;;;;;;;;;;;25.66;nan;100914.63;5053157;28;1914;-33
2022/09/18 05:19:01;;;;;;;;;;;;;;;25.64;nan;100911.25;5053277;28;984;-29
2022/09/18 05:21:27;;;;;;;;;;;;;;;25.64;nan;100921.91;5053343;28;1293;-34
2022/09/18 05:23:54;;;;;;;;;;;;;;;25.63;nan;100909.53;5053242;28;734;-35
2022/09/18 05:26:21;;;;;;;;;;;;;;;25.63;nan;100910.38;5053046;28;1307;-34
2022/09/18 05:28:48;;;;;;;;;;;;;;;25.62;nan;100930.06;5053412;28;729;-35
2022/09/18 05:31:15;;;;;;;;;;;;;;;25.61;nan;100919.50;5053224;28;1185;-34
2022/09/18 05:33:42;;;;;;;;;;;;;;;25.61;nan;100933.69;5051899;28;979;-35
2022/09/18 05:36:09;;;;;;;;;;;;;;;25.60;nan;100931.97;5053235;28;1910;-34
2022/09/18 05:38:36;;;;;;;;;;;;;;;25.57;nan;100924.25;5053545;28;1254;-35
2022/09/18 05:41:03;;;;;;;;;;;;;;;25.58;nan;100935.75;5052826;28;1189;-30
2022/09/18 05:43:29;;;;;;;;;;;;;;;25.57;nan;100940.25;5052929;28;1249;-33
2022/09/18 05:45:56;;;;;;;;;;;;;;;25.57;nan;100936.72;5052932;28;1216;-33
2022/09/18 05:48:23;;;;;;;;;;;;;;;25.56;nan;100943.91;5053242;28;1354;-33
2022/09/18 05:50:50;;;;;;;;;;;;;;;25.56;nan;100943.06;5053131;28;1383;-34
2022/09/18 05:53:18;;;;;;;;;;;;;;;25.57;nan;100947.38;5053402;28;971;-30
2022/09/18 05:55:44;;;;;;;;;;;;;;;25.54;nan;100954.69;5053174;28;1201;-33
2022/09/18 05:58:13;;;;;;;;;;;;;;;25.53;nan;100955.66;5053296;28;1914;-34
2022/09/18 06:00:39;;;;;;;;;;;;;;;25.52;nan;100955.78;5053227;28;1273;-35
2022/09/18 06:03:08;;;;;;;;;;;;;;;25.52;nan;100951.31;5053296;28;1167;-32
2022/09/18 06:05:36;;;;;;;;;;;;;;;25.51;nan;100952.28;5053012;28;1300;-29
2022/09/18 06:08:08;;;;;;;;;;;;;;;25.51;nan;100959.41;5053066;28;1055;-35
2022/09/18 06:10:36;;;;;;;;;;;;;;;25.51;nan;100960.28;5052902;28;1274;-35
2022/09/18 06:13:06;;;;;;;;;;;;;;;25.48;nan;100959.63;5052985;28;1043;-35
2022/09/18 06:15:33;;;;;;;;;;;;;;;25.48;nan;100968.53;5052963;28;1214;-35
2022/09/18 06:18:00;;;;;;;;;;;;;;;25.48;nan;100971.19;5056662;28;1902;-31
2022/09/18 06:20:27;;;;;;;;;;;;;;;25.48;nan;100975.63;5056896;28;1240;-30
2022/09/18 06:22:57;;;;;;;;;;;;;;;25.49;nan;100982.72;5057088;28;1040;-32
2022/09/18 06:25:23;;;;;;;;;;;;;;;25.46;nan;100978.44;5056811;28;1227;-32
2022/09/18 06:27:57;;;;;;;;;;;;;;;25.47;nan;100974.78;5056720;28;1107;-35
2022/09/18 06:30:24;;;;;;;;;;;;;;;25.47;nan;100969.44;5056185;28;1288;-30
2022/09/18 06:32:52;;;;;;;;;;;;;;;25.45;nan;100970.56;5056583;28;1128;-33
2022/09/18 06:35:19;;;;;;;;;;;;;;;25.43;nan;100967.19;5056291;28;1322;-34
2022/09/18 06:37:45;;;;;;;;;;;;;;;25.45;nan;100970.56;5056544;28;1983;-33
2022/09/18 06:40:12;;;;;;;;;;;;;;;25.44;nan;100975.03;5056410;28;1365;-34
2022/09/18 06:42:39;;;;;;;;;;;;;;;25.44;nan;100966.22;5056227;28;985;-35
2022/09/18 06:45:10;;;;;;;;;;;;;;;25.43;nan;100973.38;5055845;28;1398;-34
2022/09/18 06:47:37;;;;;;;;;;;;;;;25.42;nan;100974.31;5055664;28;1043;-33
2022/09/18 06:50:05;;;;;;;;;;;;;;;25.43;nan;100977.84;5055779;28;1524;-30
2022/09/18 06:52:32;;;;;;;;;;;;;;;25.41;nan;100969.94;5056275;28;1251;-36
2022/09/18 06:54:58;;;;;;;;;;;;;;;25.43;nan;100980.50;5056129;28;1237;-34
2022/09/18 06:57:25;;;;;;;;;;;;;;;25.40;nan;100978.94;5056132;28;1910;-34
2022/09/18 06:59:52;;;;;;;;;;;;;;;25.40;nan;100973.63;5055773;28;1208;-33
2022/09/18 07:02:19;;;;;;;;;;;;;;;25.40;nan;100978.09;5055863;28;971;-32
2022/09/18 07:04:45;;;;;;;;;;;;;;;25.40;nan;100981.63;5055779;28;1298;-32
2022/09/18 07:07:12;;;;;;;;;;;;;;;25.41;nan;100974.47;5055805;28;1117;-33
2022/09/18 07:09:39;;;;;;;;;;;;;;;25.40;nan;100976.28;5055394;28;1354;-34
2022/09/18 07:12:05;;;;;;;;;;;;;;;25.40;nan;100976.28;5055585;28;1045;-34
2022/09/18 07:14:32;;;;;;;;;;;;;;;25.41;nan;100975.28;5055885;28;1244;-34
2022/09/18 07:16:59;;;;;;;;;;;;;;;25.40;nan;100981.63;5055637;28;1906;-32
2022/09/18 07:19:25;;;;;;;;;;;;;;;25.39;nan;100971.91;5055466;28;1296;-30
2022/09/18 07:21:52;;;;;;;;;;;;;;;25.40;nan;100983.44;5055477;28;1114;-29
2022/09/18 07:24:19;;;;;;;;;;;;;;;25.40;nan;100984.28;5055262;28;908;-27
2022/09/18 07:26:46;;;;;;;;;;;;;;;25.39;nan;100982.56;5055044;28;1292;-28
2022/09/18 07:29:12;;;;;;;;;;;;;;;25.39;nan;100977.25;5055498;28;737;-35
2022/09/18 07:31:39;;;;;;;;;;;;;;;25.40;nan;100984.28;5055166;28;1295;-33
2022/09/18 07:34:07;;;;;;;;;;;;;;;25.40;nan;100989.63;5055100;28;883;-34
2022/09/18 07:36:34;;;;;;;;;;;;;;;25.39;nan;100984.38;5055007;28;1914;-36
2022/09/18 07:39:01;;;;;;;;;;;;;;;25.39;nan;100990.56;5054096;28;990;-34
2022/09/18 07:41:27;;;;;;;;;;;;;;;25.40;nan;101000.28;5055080;28;1307;-33
2022/09/18 07:43:54;;;;;;;;;;;;;;;25.40;nan;100992.28;5055170;28;934;-33
2022/09/18 07:46:21;;;;;;;;;;;;;;;25.42;nan;101000.13;5054694;28;1193;-35
2022/09/18 07:48:48;;;;;;;;;;;;;;;25.41;nan;100993.94;5054695;28;1119;-34
2022/09/18 07:51:14;;;;;;;;;;;;;;;25.41;nan;100995.78;5054958;28;1205;-30
2022/09/18 07:53:41;;;;;;;;;;;;;;;25.42;nan;100995.66;5055201;28;1010;-33
2022/09/18 07:56:08;;;;;;;;;;;;;;;25.42;nan;100992.13;5054799;28;1288;-34
2022/09/18 07:58:36;;;;;;;;;;;;;;;25.43;nan;101000.03;5054850;28;1989;-33
2022/09/18 08:01:03;;;;;;;;;;;;;;;25.43;nan;101002.69;5054679;28;1292;-32
2022/09/18 08:03:30;;;;;;;;;;;;;;;25.43;nan;101005.38;5054965;28;1280;-31
2022/09/18 08:05:57;;;;;;;;;;;;;;;25.43;nan;101002.69;5054348;28;1291;-35
2022/09/18 08:08:23;;;;;;;;;;;;;;;25.43;nan;101005.38;5054636;28;1244;-31
2022/09/18 08:10:50;;;;;;;;;;;;;;;25.43;nan;101008.03;5054328;28;1212;-34
2022/09/18 08:13:17;;;;;;;;;;;;;;;25.43;nan;101010.69;5053869;28;1000;-31
2022/09/18 08:15:44;;;;;;;;;;;;;;;25.44;nan;101014.22;5054248;28;1205;-32
2022/09/18 08:18:10;;;;;;;;;;;;;;;25.44;nan;101012.38;5054421;28;1922;-31
2022/09/18 08:20:37;;;;;;;;;;;;;;;25.44;nan;101012.38;5054324;28;1218;-32
2022/09/18 08:23:07;;;;;;;;;;;;;;;25.45;nan;101014.06;5053990;28;1036;-34
2022/09/18 08:25:34;;;;;;;;;;;;;;;25.45;nan;101024.75;5053657;28;1287;-35
2022/09/18 08:28:02;;;;;;;;;;;;;;;25.42;nan;101016.13;5054053;28;1031;-34
2022/09/18 08:30:29;;;;;;;;;;;;;;;25.45;nan;101021.22;5085728;28;1226;-33
2022/09/18 08:33:00;;;;;;;;;;;;;;;25.46;nan;101030.94;5053980;28;951;-32
2022/09/18 08:35:27;;;;;;;;;;;;;;;25.46;nan;101026.44;5053563;28;1306;-32
2022/09/18 08:37:54;;;;;;;;;;;;;;;25.47;nan;101035.31;5053061;28;1914;-34
2022/09/18 08:40:29;;;;;;;;;;;;;;;25.47;nan;101033.47;5052920;28;1261;-31
2022/09/18 08:43:14;;;;;;;;;;;;;;;25.45;nan;101037.22;5053313;28;1161;-31
2022/09/18 08:46:00;;;;;;;;;;;;;;;25.49;nan;101039.56;5053580;28;1292;-31
2022/09/18 08:48:33;;;;;;;;;;;;;;;25.51;nan;101040.28;5053389;28;1656;-33
2022/09/18 08:51:23;;;;;;;;;;;;;;;25.51;nan;101048.28;5053562;28;1276;-34
2022/09/18 08:53:53;;;;;;;;;;;;;;;25.51;nan;101040.28;5055711;28;1181;-32
2022/09/18 08:56:21;;;;;;;;;;;;;;;25.52;nan;101044.66;5068495;28;1212;-35
2022/09/18 08:58:52;;;;;;;;;;;;;;;25.52;nan;101041.13;5053214;28;1997;-34
2022/09/18 09:01:21;;;;;;;;;;;;;;;25.51;nan;101050.94;5052753;28;1360;-34
2022/09/18 09:03:48;;;;;;;;;;;;;;;25.51;nan;101047.44;5053204;28;902;-32
2022/09/18 09:06:25;;;;;;;;;;;;;;;25.51;nan;101044.75;5053427;28;1300;-34
2022/09/18 09:09:10;;;;;;;;;;;;;;;25.52;nan;101058.00;5052999;28;642;-33
2022/09/18 09:11:52;;;;;;;;;;;;;;;25.54;nan;101053.38;5053326;28;1409;-31
2022/09/18 09:14:37;;;;;;;;;;;;;;;25.54;nan;101055.19;5053082;28;687;-35
2022/09/18 09:17:38;;;;;;;;;;;;;;;25.56;nan;101057.75;5053552;28;1983;-35
2022/09/18 09:20:11;;;;;;;;;;;;;;;25.57;nan;101059.41;5052940;28;1161;-32
2022/09/18 09:22:45;;;;;;;;;;;;;;;25.55;nan;101054.22;5053343;28;949;-31
2022/09/18 09:25:18;;;;;;;;;;;;;;;25.57;nan;101065.59;5052942;28;1375;-28
2022/09/18 09:27:52;;;;;;;;;;;;;;;25.58;nan;101074.47;5053279;28;1025;-32
2022/09/18 09:30:19;;;;;;;;;;;;;;;25.57;nan;101059.41;5053297;28;1362;-36
2022/09/18 09:32:53;;;;;;;;;;;;;;;25.58;nan;101063.78;5053273;28;1114;-34
2022/09/18 09:35:41;;;;;;;;;;;;;;;25.57;nan;101059.41;5053108;28;1276;-35
2022/09/18 09:38:28;;;;;;;;;;;;;;;25.54;nan;101056.03;5053299;28;1914;-31
2022/09/18 09:40:56;;;;;;;;;;;;;;;25.56;nan;101063.09;5052689;28;1463;-35
2022/09/18 09:43:23;;;;;;;;;;;;;;;25.56;nan;101055.09;5053196;28;1247;-34
2022/09/18 09:45:52;;;;;;;;;;;;;;;25.58;nan;101058.47;5052792;28;1287;-34
2022/09/18 09:48:27;;;;;;;;;;;;;;;25.57;nan;101060.28;5052364;28;1487;-35
2022/09/18 09:50:54;;;;;;;;;;;;;;;25.58;nan;101059.31;5055410;28;1162;-30
2022/09/18 09:53:23;;;;;;;;;;;;;;;25.57;nan;101054.94;5057383;28;1249;-32
2022/09/18 09:55:52;;;;;;;;;;;;;;;25.57;nan;101057.59;5057106;28;1284;-33
2022/09/18 09:58:19;;;;;;;;;;;;;;;25.58;nan;101053.13;5056796;28;1922;-32
2022/09/18 10:00:49;;;;;;;;;;;;;;;25.58;nan;101055.78;5056822;28;1221;-33
2022/09/18 10:03:28;;;;;;;;;;;;;;;25.59;nan;101054.84;5057259;28;1048;-33
2022/09/18 10:05:58;;;;;;;;;;;;;;;25.57;nan;101056.75;5056474;28;1194;-34
2022/09/18 10:08:34;;;;;;;;;;;;;;;25.58;nan;101053.13;5057157;28;1252;-35
2022/09/18 10:11:07;;;;;;;;;;;;;;;25.61;nan;101055.53;5056026;28;1270;-36
2022/09/18 10:13:39;;;;;;;;;;;;;;;25.60;nan;101052.03;5056868;28;1181;-34
2022/09/18 10:16:14;;;;;;;;;;;;;;;25.60;nan;101053.84;5056412;28;1204;-35
2022/09/18 10:18:43;;;;;;;;;;;;;;;25.61;nan;101044.88;5057063;28;1906;-32
2022/09/18 10:21:11;;;;;;;;;;;;;;;25.62;nan;101041.25;5056323;28;1209;-31
2022/09/18 10:23:38;;;;;;;;;;;;;;;25.63;nan;101041.09;5056770;28;1180;-34
2022/09/18 10:26:05;;;;;;;;;;;;;;;25.64;nan;101047.28;5056480;28;1187;-34
2022/09/18 10:28:32;;;;;;;;;;;;;;;25.63;nan;101041.09;5056493;28;1102;-33
2022/09/18 10:31:00;;;;;;;;;;;;;;;25.65;nan;101047.19;5055914;28;1307;-35
2022/09/18 10:33:32;;;;;;;;;;;;;;;25.65;nan;101041.84;5056672;28;1241;-32
2022/09/18 10:36:01;;;;;;;;;;;;;;;25.65;nan;101043.66;5055957;28;1217;-30
2022/09/18 10:38:29;;;;;;;;;;;;;;;25.65;nan;101035.66;5055982;28;1994;-35
2022/09/18 10:41:08;;;;;;;;;;;;;;;25.63;nan;101045.59;5055117;28;1319;-35
2022/09/18 10:43:37;;;;;;;;;;;;;;;25.62;nan;101041.25;5056302;28;1175;-34
2022/09/18 10:46:03;;;;;;;;;;;;;;;25.62;nan;101041.25;5055843;28;1218;-34
2022/09/18 10:48:30;;;;;;;;;;;;;;;25.61;nan;101043.06;5056028;28;1581;-32
2022/09/18 10:51:01;;;;;;;;;;;;;;;25.62;nan;101041.25;5055655;28;1253;-35
2022/09/18 10:53:29;;;;;;;;;;;;;;;25.64;nan;101044.63;5056231;28;1163;-37
2022/09/18 10:56:03;;;;;;;;;;;;;;;25.65;nan;101038.31;5055793;28;1290;-32
2022/09/18 10:58:32;;;;;;;;;;;;;;;25.66;nan;101035.53;5056040;28;1899;-30
2022/09/18 11:01:03;;;;;;;;;;;;;;;25.67;nan;101029.22;5055343;28;1204;-34
2022/09/18 11:03:36;;;;;;;;;;;;;;;25.67;nan;101031.03;5055367;28;1155;-33
2022/09/18 11:06:05;;;;;;;;;;;;;;;25.67;nan;101042.56;5055595;28;1370;-34
2022/09/18 11:08:34;;;;;;;;;;;;;;;25.65;nan;101035.66;5055088;28;1232;-32
2022/09/18 11:11:05;;;;;;;;;;;;;;;25.63;nan;101034.91;5054916;28;1299;-30
2022/09/18 11:13:35;;;;;;;;;;;;;;;25.63;nan;101038.44;5055824;28;1274;-33
2022/09/18 11:16:02;;;;;;;;;;;;;;;25.63;nan;101029.59;5055221;28;1209;-34
2022/09/18 11:18:30;;;;;;;;;;;;;;;25.63;nan;101033.09;5055675;28;1989;-32
2022/09/18 11:20:59;;;;;;;;;;;;;;;25.63;nan;101035.78;5055261;28;1205;-31
2022/09/18 11:23:29;;;;;;;;;;;;;;;25.63;nan;101032.25;5055601;28;1156;-31
2022/09/18 11:26:16;;;;;;;;;;;;;;;25.62;nan;101031.44;5055276;28;1232;-33
2022/09/18 11:28:56;;;;;;;;;;;;;;;25.63;nan;101026.91;5054753;28;1064;-33
2022/09/18 11:31:24;;;;;;;;;;;;;;;25.63;nan;101032.25;5050015;28;1447;-27
2022/09/18 11:33:54;;;;;;;;;;;;;;;25.65;nan;101025.00;5074746;28;809;-32
2022/09/18 11:36:49;;;;;;;;;;;;;;;25.66;nan;101034.66;5073584;28;1678;-27
2022/09/18 11:39:20;;;;;;;;;;;;;;;25.66;nan;101030.19;5041707;28;1938;-31
2022/09/18 11:41:53;;;;;;;;;;;;;;;25.68;nan;101024.75;5065997;28;1063;-29
2022/09/18 11:44:23;;;;;;;;;;;;;;;25.68;nan;101024.75;5049971;28;1100;-32
2022/09/18 11:47:09;;;;;;;;;;;;;;;25.69;nan;101023.75;5032834;28;1003;-37
2022/09/18 11:49:59;;;;;;;;;;;;;;;25.69;nan;101021.94;5082292;28;1257;-33
2022/09/18 11:52:34;;;;;;;;;;;;;;;25.69;nan;101037.09;5035065;28;1187;-32
2022/09/18 11:55:20;;;;;;;;;;;;;;;25.69;nan;101029.09;5031783;28;1264;-33
2022/09/18 11:57:49;;;;;;;;;;;;;;;25.71;nan;101024.50;5031662;28;1906;-35
2022/09/18 12:00:21;;;;;;;;;;;;;;;25.71;nan;101025.34;5044938;28;1268;-32
2022/09/18 12:02:51;;;;;;;;;;;;;;;25.73;nan;101027.88;5042369;28;1080;-29
2022/09/18 12:05:32;;;;;;;;;;;;;;;25.74;nan;101018.91;5048930;28;1493;-32
2022/09/18 12:07:59;;;;;;;;;;;;;;;25.78;nan;101025.66;5046388;28;985;-28
2022/09/18 12:10:26;;;;;;;;;;;;;;;25.79;nan;101020.22;5070386;28;1347;-35
2022/09/18 12:12:52;;;;;;;;;;;;;;;25.78;nan;101013.16;5039699;28;1112;-33
2022/09/18 12:15:21;;;;;;;;;;;;;;;25.80;nan;101013.91;5030030;28;1363;-33
2022/09/18 12:17:56;;;;;;;;;;;;;;;25.82;nan;101008.44;5030520;28;1918;-29
2022/09/18 12:20:26;;;;;;;;;;;;;;;25.81;nan;101015.59;5030228;28;1233;-33
2022/09/18 12:22:56;;;;;;;;;;;;;;;25.83;nan;101004.81;5042410;28;966;-34
2022/09/18 12:25:32;;;;;;;;;;;;;;;25.84;nan;101015.31;5049360;28;1351;-33
2022/09/18 12:28:07;;;;;;;;;;;;;;;25.86;nan;101005.41;5032154;28;995;-33
2022/09/18 12:30:43;;;;;;;;;;;;;;;25.89;nan;101009.63;5032011;28;1324;-34
2022/09/18 12:33:22;;;;;;;;;;;;;;;25.91;nan;100999.66;5036238;28;1093;-31
2022/09/18 12:35:54;;;;;;;;;;;;;;;25.93;nan;100998.56;5031951;28;1221;-34
2022/09/18 12:38:21;;;;;;;;;;;;;;;25.95;nan;101001.97;5048882;28;1906;-33
2022/09/18 12:41:06;;;;;;;;;;;;;;;25.97;nan;101001.81;5047157;28;1331;-33
2022/09/18 12:43:33;;;;;;;;;;;;;;;25.97;nan;100994.66;5033621;28;1198;-30
2022/09/18 12:46:05;;;;;;;;;;;;;;;25.97;nan;100992.00;5032737;28;1273;-32
2022/09/18 12:48:50;;;;;;;;;;;;;;;25.99;nan;100995.38;5030539;28;1553;-35
2022/09/18 12:51:17;;;;;;;;;;;;;;;25.99;nan;100999.91;5036020;28;1229;-29
2022/09/18 12:54:04;;;;;;;;;;;;;;;25.99;nan;100986.56;5036513;28;1597;-34
2022/09/18 12:56:52;;;;;;;;;;;;;;;25.99;nan;100992.72;5041628;28;1355;-36
2022/09/18 12:59:31;;;;;;;;;;;;;;;26.00;nan;100993.56;5042233;28;1938;-33
2022/09/18 13:02:11;;;;;;;;;;;;;;;25.99;nan;100986.56;5044671;28;1212;-33
2022/09/18 13:04:43;;;;;;;;;;;;;;;25.99;nan;100990.03;5044659;28;1327;-32
2022/09/18 13:07:14;;;;;;;;;;;;;;;25.99;nan;100990.03;5075650;28;1300;-33
2022/09/18 13:09:41;;;;;;;;;;;;;;;26.00;nan;100986.41;5045014;28;1344;-30
2022/09/18 13:12:19;;;;;;;;;;;;;;;26.01;nan;100984.59;5046119;28;1207;-32
2022/09/18 13:14:50;;;;;;;;;;;;;;;26.02;nan;100975.63;5043957;28;1400;-33
2022/09/18 13:17:24;;;;;;;;;;;;;;;26.03;nan;100977.28;5043944;28;1148;-33
2022/09/18 13:19:54;;;;;;;;;;;;;;;26.01;nan;100992.59;5045361;28;1906;-34
2022/09/18 13:22:21;;;;;;;;;;;;;;;26.01;nan;100985.44;5042421;28;1092;-35
2022/09/18 13:24:51;;;;;;;;;;;;;;;26.02;nan;100986.28;5044877;28;1260;-31
2022/09/18 13:27:19;;;;;;;;;;;;;;;26.03;nan;100974.63;5042613;28;1093;-33